sensor_id;sensor_type;location;lat;lon;timestamp;temperature;humidity
41481;DHT22;27217;51.220;5.308;2024-01-15T00:01:47;1.40;99.90
41481;DHT22;27217;51.220;5.308;2024-01-15T00:06:49;1.40;99.90
41481;DHT22;27217;51.220;5.308;2024-01-15T00:09:18;1.40;99.90
41481;DHT22;27217;51.220;5.308;2024-01-15T00:11:44;1.70;99.90
41481;DHT22;27217;51.220;5.308;2024-01-15T00:14:10;1.60;99.90
41481;DHT22;27217;51.220;5.308;2024-01-15T00:16:36;1.30;99.90
41481;DHT22;27217;51.220;5.308;2024-01-15T00:19:01;1.60;99.90
41481;DHT22;27217;51.220;5.308;2024-01-15T00:21:27;1.40;99.90
41481;DHT22;27217;51.220;5.308;2024-01-15T00:23:56;1.40;99.90
41481;DHT22;27217;51.220;5.308;2024-01-15T00:28:58;1.10;99.90
41481;DHT22;27217;51.220;5.308;2024-01-15T00:31:24;1.30;99.90
41481;DHT22;27217;51.220;5.308;2024-01-15T00:33:50;1.50;99.90
41481;DHT22;27217;51.220;5.308;2024-01-15T00:36:16;1.60;99.90
41481;DHT22;27217;51.220;5.308;2024-01-15T00:41:17;1.50;99.90
41481;DHT22;27217;51.220;5.308;2024-01-15T00:43:44;1.60;99.90
41481;DHT22;27217;51.220;5.308;2024-01-15T00:59:06;1.50;99.90
41481;DHT22;27217;51.220;5.308;2024-01-15T01:04:17;1.20;99.90
41481;DHT22;27217;51.220;5.308;2024-01-15T01:06:43;1.50;99.90
41481;DHT22;27217;51.220;5.308;2024-01-15T01:09:09;1.40;99.90
41481;DHT22;27217;51.220;5.308;2024-01-15T01:11:35;1.40;99.90
41481;DHT22;27217;51.220;5.308;2024-01-15T01:14:00;1.50;99.90
41481;DHT22;27217;51.220;5.308;2024-01-15T01:16:27;1.50;99.90
41481;DHT22;27217;51.220;5.308;2024-01-15T01:18:53;1.40;99.90
41481;DHT22;27217;51.220;5.308;2024-01-15T01:21:18;1.50;99.90
41481;DHT22;27217;51.220;5.308;2024-01-15T01:26:20;1.30;99.90
41481;DHT22;27217;51.220;5.308;2024-01-15T02:54:12;1.40;99.90
41481;DHT22;27217;51.220;5.308;2024-01-15T03:24:11;1.50;99.90
41481;DHT22;27217;51.220;5.308;2024-01-15T03:26:39;1.50;99.90
41481;DHT22;27217;51.220;5.308;2024-01-15T03:34:05;1.40;99.90
41481;DHT22;27217;51.220;5.308;2024-01-15T03:54:36;1.60;99.90
41481;DHT22;27217;51.220;5.308;2024-01-15T04:15:09;1.80;99.90
41481;DHT22;27217;51.220;5.308;2024-01-15T04:17:34;1.60;99.90
41481;DHT22;27217;51.220;5.308;2024-01-15T04:20:01;1.90;99.90
41481;DHT22;27217;51.220;5.308;2024-01-15T04:22:29;1.50;99.90
41481;DHT22;27217;51.220;5.308;2024-01-15T04:24:55;1.70;99.90
41481;DHT22;27217;51.220;5.308;2024-01-15T04:35:03;1.80;99.90
41481;DHT22;27217;51.220;5.308;2024-01-15T05:31:45;1.50;99.90
41481;DHT22;27217;51.220;5.308;2024-01-15T05:34:11;1.50;99.90
41481;DHT22;27217;51.220;5.308;2024-01-15T05:36:40;1.80;99.90
41481;DHT22;27217;51.220;5.308;2024-01-15T05:39:06;1.30;99.90
41481;DHT22;27217;51.220;5.308;2024-01-15T05:41:32;1.30;99.90
41481;DHT22;27217;51.220;5.308;2024-01-15T05:43:58;1.00;99.90
41481;DHT22;27217;51.220;5.308;2024-01-15T05:46:23;1.20;99.90
41481;DHT22;27217;51.220;5.308;2024-01-15T05:48:51;1.30;99.90
41481;DHT22;27217;51.220;5.308;2024-01-15T05:51:17;1.30;99.90
41481;DHT22;27217;51.220;5.308;2024-01-15T05:53:42;1.50;99.90
41481;DHT22;27217;51.220;5.308;2024-01-15T05:56:10;1.30;99.90
41481;DHT22;27217;51.220;5.308;2024-01-15T05:58:42;1.30;99.90
41481;DHT22;27217;51.220;5.308;2024-01-15T06:01:08;1.50;99.90
41481;DHT22;27217;51.220;5.308;2024-01-15T06:08:44;1.50;99.90
41481;DHT22;27217;51.220;5.308;2024-01-15T06:13:45;1.30;99.90
41481;DHT22;27217;51.220;5.308;2024-01-15T06:29:21;1.60;99.90
41481;DHT22;27217;51.220;5.308;2024-01-15T06:31:46;1.30;99.90
41481;DHT22;27217;51.220;5.308;2024-01-15T09:54:21;1.70;99.90
41481;DHT22;27217;51.220;5.308;2024-01-15T09:56:47;1.90;99.90
41481;DHT22;27217;51.220;5.308;2024-01-15T09:59:16;2.10;99.90
41481;DHT22;27217;51.220;5.308;2024-01-15T10:01:45;2.30;99.90
41481;DHT22;27217;51.220;5.308;2024-01-15T10:04:13;2.50;99.90
41481;DHT22;27217;51.220;5.308;2024-01-15T10:06:46;2.20;99.90
41481;DHT22;27217;51.220;5.308;2024-01-15T10:09:16;2.30;99.90
41481;DHT22;27217;51.220;5.308;2024-01-15T10:14:19;2.20;99.90
41481;DHT22;27217;51.220;5.308;2024-01-15T10:16:48;2.30;99.90
41481;DHT22;27217;51.220;5.308;2024-01-15T10:19:14;2.00;99.90
41481;DHT22;27217;51.220;5.308;2024-01-15T10:21:40;2.30;99.90
41481;DHT22;27217;51.220;5.308;2024-01-15T10:24:06;2.40;99.90
41481;DHT22;27217;51.220;5.308;2024-01-15T10:26:32;2.40;99.90
41481;DHT22;27217;51.220;5.308;2024-01-15T10:29:01;2.20;99.90
41481;DHT22;27217;51.220;5.308;2024-01-15T10:31:27;2.50;99.90
41481;DHT22;27217;51.220;5.308;2024-01-15T10:33:53;2.50;99.90
41481;DHT22;27217;51.220;5.308;2024-01-15T10:36:19;2.50;99.90
41481;DHT22;27217;51.220;5.308;2024-01-15T10:38:45;2.50;99.90
41481;DHT22;27217;51.220;5.308;2024-01-15T10:41:11;2.80;99.90
41481;DHT22;27217;51.220;5.308;2024-01-15T10:43:37;2.90;99.90
41481;DHT22;27217;51.220;5.308;2024-01-15T10:46:03;2.90;99.90
41481;DHT22;27217;51.220;5.308;2024-01-15T10:48:29;3.10;99.90
41481;DHT22;27217;51.220;5.308;2024-01-15T10:50:57;2.90;99.90
41481;DHT22;27217;51.220;5.308;2024-01-15T10:53:23;2.90;99.90
41481;DHT22;27217;51.220;5.308;2024-01-15T10:55:50;2.60;99.90
41481;DHT22;27217;51.220;5.308;2024-01-15T10:58:21;2.30;99.90
41481;DHT22;27217;51.220;5.308;2024-01-15T11:00:52;2.20;99.90
41481;DHT22;27217;51.220;5.308;2024-01-15T11:03:18;2.10;99.90
41481;DHT22;27217;51.220;5.308;2024-01-15T11:05:44;2.10;99.90
41481;DHT22;27217;51.220;5.308;2024-01-15T11:08:10;2.10;99.90
41481;DHT22;27217;51.220;5.308;2024-01-15T11:23:51;1.60;99.90
41481;DHT22;27217;51.220;5.308;2024-01-15T11:28:54;1.50;99.90
41481;DHT22;27217;51.220;5.308;2024-01-15T11:31:20;1.50;99.90
41481;DHT22;27217;51.220;5.308;2024-01-15T11:33:52;1.40;99.90
41481;DHT22;27217;51.220;5.308;2024-01-15T11:36:18;1.20;99.90
41481;DHT22;27217;51.220;5.308;2024-01-15T11:38:44;1.20;99.90
41481;DHT22;27217;51.220;5.308;2024-01-15T11:51:31;1.40;99.90
41481;DHT22;27217;51.220;5.308;2024-01-15T11:53:59;1.70;99.90
41481;DHT22;27217;51.220;5.308;2024-01-15T11:56:29;1.80;99.90
41481;DHT22;27217;51.220;5.308;2024-01-15T12:01:32;1.90;99.90
41481;DHT22;27217;51.220;5.308;2024-01-15T12:03:59;1.80;99.90
41481;DHT22;27217;51.220;5.308;2024-01-15T12:06:25;1.80;99.90
41481;DHT22;27217;51.220;5.308;2024-01-15T12:09:05;1.70;99.90
41481;DHT22;27217;51.220;5.308;2024-01-15T12:11:34;1.80;99.90
41481;DHT22;27217;51.220;5.308;2024-01-15T12:14:01;1.80;99.90
41481;DHT22;27217;51.220;5.308;2024-01-15T12:16:27;2.10;99.90
41481;DHT22;27217;51.220;5.308;2024-01-15T12:18:53;2.20;99.90
41481;DHT22;27217;51.220;5.308;2024-01-15T12:21:19;2.10;99.90
41481;DHT22;27217;51.220;5.308;2024-01-15T12:23:49;1.90;99.90
41481;DHT22;27217;51.220;5.308;2024-01-15T12:31:26;1.20;99.90
41481;DHT22;27217;51.220;5.308;2024-01-15T12:33:53;1.10;99.90
41481;DHT22;27217;51.220;5.308;2024-01-15T13:24:20;2.40;99.90
41481;DHT22;27217;51.220;5.308;2024-01-15T13:26:51;2.00;99.90
41481;DHT22;27217;51.220;5.308;2024-01-15T13:29:20;2.00;99.90
41481;DHT22;27217;51.220;5.308;2024-01-15T13:31:46;1.90;99.90
41481;DHT22;27217;51.220;5.308;2024-01-15T13:34:12;2.00;99.90
41481;DHT22;27217;51.220;5.308;2024-01-15T13:39:13;2.00;99.90
41481;DHT22;27217;51.220;5.308;2024-01-15T13:44:17;2.00;99.90
41481;DHT22;27217;51.220;5.308;2024-01-15T13:49:21;2.00;99.90
41481;DHT22;27217;51.220;5.308;2024-01-15T13:51:46;1.90;99.90
41481;DHT22;27217;51.220;5.308;2024-01-15T13:54:12;1.70;99.90
41481;DHT22;27217;51.220;5.308;2024-01-15T13:56:40;1.90;99.90
41481;DHT22;27217;51.220;5.308;2024-01-15T14:01:42;2.10;99.90
41481;DHT22;27217;51.220;5.308;2024-01-15T14:04:14;2.10;99.90
41481;DHT22;27217;51.220;5.308;2024-01-15T14:06:40;2.10;99.90
41481;DHT22;27217;51.220;5.308;2024-01-15T14:09:05;2.80;99.90
41481;DHT22;27217;51.220;5.308;2024-01-15T14:11:40;3.30;99.90
41481;DHT22;27217;51.220;5.308;2024-01-15T14:14:06;3.20;99.90
41481;DHT22;27217;51.220;5.308;2024-01-15T14:16:33;3.00;99.90
41481;DHT22;27217;51.220;5.308;2024-01-15T15:05:31;1.80;99.90
41481;DHT22;27217;51.220;5.308;2024-01-15T15:07:57;1.90;99.90
41481;DHT22;27217;51.220;5.308;2024-01-15T15:10:23;2.00;99.90
41481;DHT22;27217;51.220;5.308;2024-01-15T15:12:49;1.70;99.90
41481;DHT22;27217;51.220;5.308;2024-01-15T15:15:14;1.90;99.90
41481;DHT22;27217;51.220;5.308;2024-01-15T15:20:20;1.70;99.90
41481;DHT22;27217;51.220;5.308;2024-01-15T15:22:46;1.90;99.90
41481;DHT22;27217;51.220;5.308;2024-01-15T15:25:13;1.60;99.90
41481;DHT22;27217;51.220;5.308;2024-01-15T15:27:39;1.50;99.90
41481;DHT22;27217;51.220;5.308;2024-01-15T15:30:07;1.60;99.90
41481;DHT22;27217;51.220;5.308;2024-01-15T15:32:37;1.60;99.90
41481;DHT22;27217;51.220;5.308;2024-01-15T15:35:07;1.70;99.90
41481;DHT22;27217;51.220;5.308;2024-01-15T15:37:38;1.60;99.90
41481;DHT22;27217;51.220;5.308;2024-01-15T15:40:06;1.70;99.90
41481;DHT22;27217;51.220;5.308;2024-01-15T15:42:39;1.70;99.90
41481;DHT22;27217;51.220;5.308;2024-01-15T15:45:06;1.70;99.90
41481;DHT22;27217;51.220;5.308;2024-01-15T15:47:35;1.60;99.90
41481;DHT22;27217;51.220;5.308;2024-01-15T15:50:01;1.50;99.90
41481;DHT22;27217;51.220;5.308;2024-01-15T15:55:02;1.40;99.90
41481;DHT22;27217;51.220;5.308;2024-01-15T15:57:28;1.40;99.90
41481;DHT22;27217;51.220;5.308;2024-01-15T16:02:33;1.20;99.90
41481;DHT22;27217;51.220;5.308;2024-01-15T16:04:58;1.40;99.90
41481;DHT22;27217;51.220;5.308;2024-01-15T16:10:00;1.30;99.90
41481;DHT22;27217;51.220;5.308;2024-01-15T16:12:25;1.60;99.90
41481;DHT22;27217;51.220;5.308;2024-01-15T16:14:51;1.50;99.90
41481;DHT22;27217;51.220;5.308;2024-01-15T16:19:52;1.30;99.90
41481;DHT22;27217;51.220;5.308;2024-01-15T16:22:19;1.20;99.90
41481;DHT22;27217;51.220;5.308;2024-01-15T16:24:44;1.00;99.90
41481;DHT22;27217;51.220;5.308;2024-01-15T16:27:13;1.40;99.90
41481;DHT22;27217;51.220;5.308;2024-01-15T16:32:16;1.10;99.90
41481;DHT22;27217;51.220;5.308;2024-01-15T16:34:42;1.00;99.90
41481;DHT22;27217;51.220;5.308;2024-01-15T16:37:08;1.00;99.90
41481;DHT22;27217;51.220;5.308;2024-01-15T16:39:41;1.10;99.90
41481;DHT22;27217;51.220;5.308;2024-01-15T16:42:07;0.90;99.90
41481;DHT22;27217;51.220;5.308;2024-01-15T16:44:34;1.30;99.90
41481;DHT22;27217;51.220;5.308;2024-01-15T16:52:11;1.00;99.90
41481;DHT22;27217;51.220;5.308;2024-01-15T17:36:03;1.20;99.90
41481;DHT22;27217;51.220;5.308;2024-01-15T17:38:31;1.10;99.90
41481;DHT22;27217;51.220;5.308;2024-01-15T17:40:58;1.10;99.90
41481;DHT22;27217;51.220;5.308;2024-01-15T17:45:59;1.20;99.90
41481;DHT22;27217;51.220;5.308;2024-01-15T17:48:29;1.00;99.90
41481;DHT22;27217;51.220;5.308;2024-01-15T17:53:29;1.00;99.90
41481;DHT22;27217;51.220;5.308;2024-01-15T17:55:55;1.20;99.90
41481;DHT22;27217;51.220;5.308;2024-01-15T17:58:21;1.20;99.90
41481;DHT22;27217;51.220;5.308;2024-01-15T18:00:46;1.10;99.90
41481;DHT22;27217;51.220;5.308;2024-01-15T18:03:15;1.00;99.90
41481;DHT22;27217;51.220;5.308;2024-01-15T18:05:42;1.10;99.90
41481;DHT22;27217;51.220;5.308;2024-01-15T18:15:46;1.20;99.90
41481;DHT22;27217;51.220;5.308;2024-01-15T18:20:48;1.10;99.90
41481;DHT22;27217;51.220;5.308;2024-01-15T18:23:14;1.40;99.90
41481;DHT22;27217;51.220;5.308;2024-01-15T18:25:40;1.40;99.90
41481;DHT22;27217;51.220;5.308;2024-01-15T18:28:07;1.20;99.90
41481;DHT22;27217;51.220;5.308;2024-01-15T18:30:33;1.10;99.90
41481;DHT22;27217;51.220;5.308;2024-01-15T18:32:59;1.30;99.90
41481;DHT22;27217;51.220;5.308;2024-01-15T18:35:28;1.10;99.90
41481;DHT22;27217;51.220;5.308;2024-01-15T18:37:54;1.20;99.90
41481;DHT22;27217;51.220;5.308;2024-01-15T18:40:20;1.10;99.90
41481;DHT22;27217;51.220;5.308;2024-01-15T18:42:45;1.20;99.90
41481;DHT22;27217;51.220;5.308;2024-01-15T18:45:11;1.00;99.90
41481;DHT22;27217;51.220;5.308;2024-01-15T18:47:37;1.00;99.90
41481;DHT22;27217;51.220;5.308;2024-01-15T18:50:06;1.30;99.90
41481;DHT22;27217;51.220;5.308;2024-01-15T18:52:32;1.00;99.90
41481;DHT22;27217;51.220;5.308;2024-01-15T18:54:58;0.90;99.90
41481;DHT22;27217;51.220;5.308;2024-01-15T18:57:24;1.30;99.90
41481;DHT22;27217;51.220;5.308;2024-01-15T18:59:50;0.90;99.90
41481;DHT22;27217;51.220;5.308;2024-01-15T19:02:16;1.10;99.90
41481;DHT22;27217;51.220;5.308;2024-01-15T19:04:42;1.20;99.90
41481;DHT22;27217;51.220;5.308;2024-01-15T19:07:08;1.20;99.90
41481;DHT22;27217;51.220;5.308;2024-01-15T19:09:34;1.10;99.90
41481;DHT22;27217;51.220;5.308;2024-01-15T19:12:01;1.10;99.90
41481;DHT22;27217;51.220;5.308;2024-01-15T19:14:27;1.10;99.90
41481;DHT22;27217;51.220;5.308;2024-01-15T19:16:52;1.20;99.90
41481;DHT22;27217;51.220;5.308;2024-01-15T19:19:22;1.30;99.90
41481;DHT22;27217;51.220;5.308;2024-01-15T19:21:48;1.20;99.90
41481;DHT22;27217;51.220;5.308;2024-01-15T19:24:14;1.30;99.90
41481;DHT22;27217;51.220;5.308;2024-01-15T19:26:39;1.30;99.90
41481;DHT22;27217;51.220;5.308;2024-01-15T19:29:05;1.30;99.90
41481;DHT22;27217;51.220;5.308;2024-01-15T19:31:34;1.10;99.90
41481;DHT22;27217;51.220;5.308;2024-01-15T19:36:35;1.30;99.90
41481;DHT22;27217;51.220;5.308;2024-01-15T19:39:01;1.60;99.90
41481;DHT22;27217;51.220;5.308;2024-01-15T19:41:27;1.40;99.90
41481;DHT22;27217;51.220;5.308;2024-01-15T19:43:53;1.20;99.90
41481;DHT22;27217;51.220;5.308;2024-01-15T19:46:20;1.20;99.90
41481;DHT22;27217;51.220;5.308;2024-01-15T19:48:47;1.40;99.90
41481;DHT22;27217;51.220;5.308;2024-01-15T19:51:13;1.40;99.90
41481;DHT22;27217;51.220;5.308;2024-01-15T19:53:39;1.50;99.90
41481;DHT22;27217;51.220;5.308;2024-01-15T19:56:08;1.50;99.90
41481;DHT22;27217;51.220;5.308;2024-01-15T19:58:34;1.40;99.90
41481;DHT22;27217;51.220;5.308;2024-01-15T20:01:02;1.30;99.90
41481;DHT22;27217;51.220;5.308;2024-01-15T20:03:31;1.20;99.90
41481;DHT22;27217;51.220;5.308;2024-01-15T20:05:57;1.40;99.90
41481;DHT22;27217;51.220;5.308;2024-01-15T20:08:23;1.40;99.90
41481;DHT22;27217;51.220;5.308;2024-01-15T20:10:52;1.60;99.90
41481;DHT22;27217;51.220;5.308;2024-01-15T20:13:18;1.60;99.90
41481;DHT22;27217;51.220;5.308;2024-01-15T20:15:44;1.50;99.90
41481;DHT22;27217;51.220;5.308;2024-01-15T20:18:09;1.40;99.90
41481;DHT22;27217;51.220;5.308;2024-01-15T20:20:35;1.50;99.90
41481;DHT22;27217;51.220;5.308;2024-01-15T20:23:01;1.50;99.90
41481;DHT22;27217;51.220;5.308;2024-01-15T20:25:27;1.30;99.90
41481;DHT22;27217;51.220;5.308;2024-01-15T20:27:53;1.20;99.90
41481;DHT22;27217;51.220;5.308;2024-01-15T20:30:19;1.40;99.90
41481;DHT22;27217;51.220;5.308;2024-01-15T20:32:47;1.30;99.90
41481;DHT22;27217;51.220;5.308;2024-01-15T20:35:13;1.40;99.90
41481;DHT22;27217;51.220;5.308;2024-01-15T20:37:39;1.30;99.90
41481;DHT22;27217;51.220;5.308;2024-01-15T20:40:05;1.20;99.90
41481;DHT22;27217;51.220;5.308;2024-01-15T20:42:38;1.30;99.90
41481;DHT22;27217;51.220;5.308;2024-01-15T20:45:05;1.40;99.90
41481;DHT22;27217;51.220;5.308;2024-01-15T20:47:31;1.60;99.90
41481;DHT22;27217;51.220;5.308;2024-01-15T20:49:57;1.40;99.90
41481;DHT22;27217;51.220;5.308;2024-01-15T20:52:22;1.30;99.90
41481;DHT22;27217;51.220;5.308;2024-01-15T20:54:48;1.10;99.90
41481;DHT22;27217;51.220;5.308;2024-01-15T20:57:16;1.10;99.90
41481;DHT22;27217;51.220;5.308;2024-01-15T20:59:42;1.10;99.90
41481;DHT22;27217;51.220;5.308;2024-01-15T21:02:08;1.10;99.90
41481;DHT22;27217;51.220;5.308;2024-01-15T21:04:33;1.30;99.90
41481;DHT22;27217;51.220;5.308;2024-01-15T21:06:59;1.00;99.90
41481;DHT22;27217;51.220;5.308;2024-01-15T21:09:25;0.90;99.90
41481;DHT22;27217;51.220;5.308;2024-01-15T21:11:53;1.00;99.90
41481;DHT22;27217;51.220;5.308;2024-01-15T21:14:19;1.20;99.90
41481;DHT22;27217;51.220;5.308;2024-01-15T21:16:45;1.30;99.90
41481;DHT22;27217;51.220;5.308;2024-01-15T21:19:12;1.20;99.90
41481;DHT22;27217;51.220;5.308;2024-01-15T21:21:37;1.40;99.90
41481;DHT22;27217;51.220;5.308;2024-01-15T21:24:03;1.40;99.90
41481;DHT22;27217;51.220;5.308;2024-01-15T21:26:29;1.10;99.90
41481;DHT22;27217;51.220;5.308;2024-01-15T21:28:55;1.00;99.90
41481;DHT22;27217;51.220;5.308;2024-01-15T21:31:20;1.30;99.90
41481;DHT22;27217;51.220;5.308;2024-01-15T21:33:46;1.30;99.90
41481;DHT22;27217;51.220;5.308;2024-01-15T21:36:13;1.40;99.90
41481;DHT22;27217;51.220;5.308;2024-01-15T21:38:40;1.30;99.90
41481;DHT22;27217;51.220;5.308;2024-01-15T21:41:05;1.30;99.90
41481;DHT22;27217;51.220;5.308;2024-01-15T21:43:31;1.30;99.90
41481;DHT22;27217;51.220;5.308;2024-01-15T21:45:57;1.10;99.90
41481;DHT22;27217;51.220;5.308;2024-01-15T21:48:23;1.10;99.90
41481;DHT22;27217;51.220;5.308;2024-01-15T21:50:48;1.00;99.90
41481;DHT22;27217;51.220;5.308;2024-01-15T21:53:14;1.00;99.90
41481;DHT22;27217;51.220;5.308;2024-01-15T21:58:11;1.10;99.90
41481;DHT22;27217;51.220;5.308;2024-01-15T22:00:40;1.10;99.90
41481;DHT22;27217;51.220;5.308;2024-01-15T22:05:41;1.20;99.90
41481;DHT22;27217;51.220;5.308;2024-01-15T22:08:07;1.60;99.90
41481;DHT22;27217;51.220;5.308;2024-01-15T22:10:34;1.60;99.90
41481;DHT22;27217;51.220;5.308;2024-01-15T22:12:59;1.30;99.90
41481;DHT22;27217;51.220;5.308;2024-01-15T22:15:25;1.10;99.90
41481;DHT22;27217;51.220;5.308;2024-01-15T22:17:51;1.20;99.90
41481;DHT22;27217;51.220;5.308;2024-01-15T22:20:17;1.20;99.90
41481;DHT22;27217;51.220;5.308;2024-01-15T22:22:43;1.10;99.90
41481;DHT22;27217;51.220;5.308;2024-01-15T22:25:12;1.30;99.90
41481;DHT22;27217;51.220;5.308;2024-01-15T22:27:38;1.50;99.90
41481;DHT22;27217;51.220;5.308;2024-01-15T22:30:04;1.40;99.90
41481;DHT22;27217;51.220;5.308;2024-01-15T22:32:30;1.20;99.90
41481;DHT22;27217;51.220;5.308;2024-01-15T22:37:29;1.10;99.90
41481;DHT22;27217;51.220;5.308;2024-01-15T22:39:54;1.30;99.90
41481;DHT22;27217;51.220;5.308;2024-01-15T22:42:20;1.30;99.90
41481;DHT22;27217;51.220;5.308;2024-01-15T22:44:46;1.30;99.90
41481;DHT22;27217;51.220;5.308;2024-01-15T22:47:11;1.50;99.90
41481;DHT22;27217;51.220;5.308;2024-01-15T22:49:37;1.20;99.90
41481;DHT22;27217;51.220;5.308;2024-01-15T23:20:32;1.20;99.90
41481;DHT22;27217;51.220;5.308;2024-01-15T23:23:01;1.10;99.90
41481;DHT22;27217;51.220;5.308;2024-01-15T23:25:26;1.10;99.90
41481;DHT22;27217;51.220;5.308;2024-01-15T23:27:53;1.20;99.90
41481;DHT22;27217;51.220;5.308;2024-01-15T23:30:19;1.20;99.90
41481;DHT22;27217;51.220;5.308;2024-01-15T23:32:47;1.10;99.90
41481;DHT22;27217;51.220;5.308;2024-01-15T23:35:16;1.00;99.90
41481;DHT22;27217;51.220;5.308;2024-01-15T23:37:45;1.00;99.90
41481;DHT22;27217;51.220;5.308;2024-01-15T23:40:11;1.20;99.90
41481;DHT22;27217;51.220;5.308;2024-01-15T23:42:47;1.30;99.90
41481;DHT22;27217;51.220;5.308;2024-01-15T23:45:13;1.40;99.90
41481;DHT22;27217;51.220;5.308;2024-01-15T23:47:41;1.10;99.90
41481;DHT22;27217;51.220;5.308;2024-01-15T23:50:08;1.00;99.90
41481;DHT22;27217;51.220;5.308;2024-01-15T23:52:34;0.90;99.90
41481;DHT22;27217;51.220;5.308;2024-01-15T23:55:04;0.90;99.90
41481;DHT22;27217;51.220;5.308;2024-01-15T23:57:31;0.90;99.90
41481;DHT22;27217;51.220;5.308;2024-01-15T23:59:57;1.00;99.90
